sensor_id;sensor_type;location;lat;lon;timestamp;P1;durP1;ratioP1;P2;durP2;ratioP2
64887;SDS011;51386;53.082;8.816;2022-10-17T00:00:49;4.60;;;2.83;;
64887;SDS011;51386;53.082;8.816;2022-10-17T00:03:16;3.70;;;2.40;;
64887;SDS011;51386;53.082;8.816;2022-10-17T00:05:44;4.43;;;2.63;;
64887;SDS011;51386;53.082;8.816;2022-10-17T00:08:14;6.27;;;3.00;;
64887;SDS011;51386;53.082;8.816;2022-10-17T00:10:44;3.87;;;2.73;;
64887;SDS011;51386;53.082;8.816;2022-10-17T00:13:21;4.37;;;2.60;;
64887;SDS011;51386;53.082;8.816;2022-10-17T00:15:50;4.50;;;2.50;;
64887;SDS011;51386;53.082;8.816;2022-10-17T00:18:17;5.97;;;2.43;;
64887;SDS011;51386;53.082;8.816;2022-10-17T00:20:45;3.93;;;2.47;;
64887;SDS011;51386;53.082;8.816;2022-10-17T00:23:12;4.83;;;2.50;;
64887;SDS011;51386;53.082;8.816;2022-10-17T00:25:40;5.70;;;2.70;;
64887;SDS011;51386;53.082;8.816;2022-10-17T00:28:07;3.93;;;2.20;;
64887;SDS011;51386;53.082;8.816;2022-10-17T00:30:35;4.33;;;2.00;;
64887;SDS011;51386;53.082;8.816;2022-10-17T00:33:04;2.47;;;2.27;;
64887;SDS011;51386;53.082;8.816;2022-10-17T00:35:32;4.60;;;2.57;;
64887;SDS011;51386;53.082;8.816;2022-10-17T00:37:59;4.10;;;2.30;;
64887;SDS011;51386;53.082;8.816;2022-10-17T00:40:27;4.30;;;2.30;;
64887;SDS011;51386;53.082;8.816;2022-10-17T00:42:54;2.70;;;1.87;;
64887;SDS011;51386;53.082;8.816;2022-10-17T00:45:22;2.97;;;1.97;;
64887;SDS011;51386;53.082;8.816;2022-10-17T00:47:54;2.50;;;2.07;;
64887;SDS011;51386;53.082;8.816;2022-10-17T00:50:27;3.47;;;2.13;;
64887;SDS011;51386;53.082;8.816;2022-10-17T00:52:55;2.30;;;1.70;;
64887;SDS011;51386;53.082;8.816;2022-10-17T00:55:29;4.07;;;2.33;;
64887;SDS011;51386;53.082;8.816;2022-10-17T00:58:01;1.93;;;1.60;;
64887;SDS011;51386;53.082;8.816;2022-10-17T01:00:31;3.23;;;1.80;;
64887;SDS011;51386;53.082;8.816;2022-10-17T01:02:58;2.23;;;1.83;;
64887;SDS011;51386;53.082;8.816;2022-10-17T01:05:25;2.70;;;1.97;;
64887;SDS011;51386;53.082;8.816;2022-10-17T01:07:55;4.43;;;2.13;;
64887;SDS011;51386;53.082;8.816;2022-10-17T01:10:23;2.93;;;2.20;;
64887;SDS011;51386;53.082;8.816;2022-10-17T01:13:02;5.20;;;2.47;;
64887;SDS011;51386;53.082;8.816;2022-10-17T01:15:42;3.47;;;2.37;;
64887;SDS011;51386;53.082;8.816;2022-10-17T01:18:29;4.50;;;2.10;;
64887;SDS011;51386;53.082;8.816;2022-10-17T01:24:21;2.67;;;2.13;;
64887;SDS011;51386;53.082;8.816;2022-10-17T01:33:50;2.57;;;2.07;;
64887;SDS011;51386;53.082;8.816;2022-10-17T01:36:31;3.20;;;2.33;;
64887;SDS011;51386;53.082;8.816;2022-10-17T01:39:11;2.53;;;1.87;;
64887;SDS011;51386;53.082;8.816;2022-10-17T01:41:48;3.87;;;1.90;;
64887;SDS011;51386;53.082;8.816;2022-10-17T01:44:25;5.10;;;2.20;;
64887;SDS011;51386;53.082;8.816;2022-10-17T01:47:04;4.03;;;2.47;;
64887;SDS011;51386;53.082;8.816;2022-10-17T01:49:36;3.33;;;2.03;;
64887;SDS011;51386;53.082;8.816;2022-10-17T01:52:07;6.20;;;2.00;;
64887;SDS011;51386;53.082;8.816;2022-10-17T01:54:41;3.10;;;1.90;;
64887;SDS011;51386;53.082;8.816;2022-10-17T01:57:16;5.03;;;2.33;;
64887;SDS011;51386;53.082;8.816;2022-10-17T01:59:50;3.20;;;2.27;;
64887;SDS011;51386;53.082;8.816;2022-10-17T02:02:23;5.87;;;2.63;;
64887;SDS011;51386;53.082;8.816;2022-10-17T02:04:52;4.23;;;2.57;;
64887;SDS011;51386;53.082;8.816;2022-10-17T02:07:22;3.70;;;2.40;;
64887;SDS011;51386;53.082;8.816;2022-10-17T02:09:50;3.40;;;2.20;;
64887;SDS011;51386;53.082;8.816;2022-10-17T02:12:31;2.37;;;2.20;;
64887;SDS011;51386;53.082;8.816;2022-10-17T02:18:40;3.73;;;2.60;;
64887;SDS011;51386;53.082;8.816;2022-10-17T02:21:27;3.07;;;2.57;;
64887;SDS011;51386;53.082;8.816;2022-10-17T02:24:05;5.27;;;2.70;;
64887;SDS011;51386;53.082;8.816;2022-10-17T02:26:43;4.40;;;2.80;;
64887;SDS011;51386;53.082;8.816;2022-10-17T02:29:20;3.33;;;2.53;;
64887;SDS011;51386;53.082;8.816;2022-10-17T02:31:55;2.90;;;2.10;;
64887;SDS011;51386;53.082;8.816;2022-10-17T02:34:32;3.60;;;2.20;;
64887;SDS011;51386;53.082;8.816;2022-10-17T02:37:06;3.53;;;2.30;;
64887;SDS011;51386;53.082;8.816;2022-10-17T02:39:38;3.00;;;2.20;;
64887;SDS011;51386;53.082;8.816;2022-10-17T02:42:09;2.67;;;2.47;;
64887;SDS011;51386;53.082;8.816;2022-10-17T02:44:41;2.63;;;2.13;;
64887;SDS011;51386;53.082;8.816;2022-10-17T02:47:12;5.70;;;2.67;;
64887;SDS011;51386;53.082;8.816;2022-10-17T02:49:50;2.30;;;2.10;;
64887;SDS011;51386;53.082;8.816;2022-10-17T02:52:22;4.10;;;2.20;;
64887;SDS011;51386;53.082;8.816;2022-10-17T02:55:01;5.63;;;2.13;;
64887;SDS011;51386;53.082;8.816;2022-10-17T02:57:37;3.30;;;2.33;;
64887;SDS011;51386;53.082;8.816;2022-10-17T03:00:11;2.67;;;2.47;;
64887;SDS011;51386;53.082;8.816;2022-10-17T03:02:41;3.50;;;2.30;;
64887;SDS011;51386;53.082;8.816;2022-10-17T03:05:14;2.30;;;2.10;;
64887;SDS011;51386;53.082;8.816;2022-10-17T03:07:47;3.40;;;2.47;;
64887;SDS011;51386;53.082;8.816;2022-10-17T03:10:15;3.40;;;3.00;;
64887;SDS011;51386;53.082;8.816;2022-10-17T03:12:43;2.93;;;2.73;;
64887;SDS011;51386;53.082;8.816;2022-10-17T03:15:11;6.27;;;3.00;;
64887;SDS011;51386;53.082;8.816;2022-10-17T03:17:39;3.70;;;3.30;;
64887;SDS011;51386;53.082;8.816;2022-10-17T03:20:07;3.40;;;3.10;;
64887;SDS011;51386;53.082;8.816;2022-10-17T03:22:36;2.97;;;2.77;;
64887;SDS011;51386;53.082;8.816;2022-10-17T03:25:04;3.27;;;2.97;;
64887;SDS011;51386;53.082;8.816;2022-10-17T03:27:31;3.37;;;3.17;;
64887;SDS011;51386;53.082;8.816;2022-10-17T03:29:58;5.50;;;3.37;;
64887;SDS011;51386;53.082;8.816;2022-10-17T03:32:26;4.60;;;3.23;;
64887;SDS011;51386;53.082;8.816;2022-10-17T03:34:53;3.80;;;3.50;;
64887;SDS011;51386;53.082;8.816;2022-10-17T03:37:20;3.70;;;3.40;;
64887;SDS011;51386;53.082;8.816;2022-10-17T03:39:49;4.90;;;3.17;;
64887;SDS011;51386;53.082;8.816;2022-10-17T03:42:16;4.80;;;3.70;;
64887;SDS011;51386;53.082;8.816;2022-10-17T03:44:44;3.17;;;2.97;;
64887;SDS011;51386;53.082;8.816;2022-10-17T03:47:11;5.47;;;3.33;;
64887;SDS011;51386;53.082;8.816;2022-10-17T03:49:39;4.80;;;3.37;;
64887;SDS011;51386;53.082;8.816;2022-10-17T03:52:09;3.60;;;3.30;;
64887;SDS011;51386;53.082;8.816;2022-10-17T03:54:37;5.63;;;3.83;;
64887;SDS011;51386;53.082;8.816;2022-10-17T03:57:06;7.33;;;3.47;;
64887;SDS011;51386;53.082;8.816;2022-10-17T03:59:33;3.90;;;3.60;;
64887;SDS011;51386;53.082;8.816;2022-10-17T04:02:01;4.07;;;3.67;;
64887;SDS011;51386;53.082;8.816;2022-10-17T04:04:28;4.57;;;3.57;;
64887;SDS011;51386;53.082;8.816;2022-10-17T04:06:55;4.10;;;3.50;;
64887;SDS011;51386;53.082;8.816;2022-10-17T04:09:22;4.17;;;3.67;;
64887;SDS011;51386;53.082;8.816;2022-10-17T04:11:50;4.00;;;3.20;;
64887;SDS011;51386;53.082;8.816;2022-10-17T04:14:18;4.10;;;3.70;;
64887;SDS011;51386;53.082;8.816;2022-10-17T04:16:46;5.17;;;3.63;;
64887;SDS011;51386;53.082;8.816;2022-10-17T04:19:13;5.30;;;3.83;;
64887;SDS011;51386;53.082;8.816;2022-10-17T04:21:40;4.23;;;3.83;;
64887;SDS011;51386;53.082;8.816;2022-10-17T04:24:09;4.73;;;3.90;;
64887;SDS011;51386;53.082;8.816;2022-10-17T04:26:37;4.23;;;3.83;;
64887;SDS011;51386;53.082;8.816;2022-10-17T04:29:04;3.93;;;3.60;;
64887;SDS011;51386;53.082;8.816;2022-10-17T04:31:33;4.40;;;3.60;;
64887;SDS011;51386;53.082;8.816;2022-10-17T04:34:01;5.77;;;4.50;;
64887;SDS011;51386;53.082;8.816;2022-10-17T04:36:28;5.40;;;4.20;;
64887;SDS011;51386;53.082;8.816;2022-10-17T04:38:55;7.13;;;4.10;;
64887;SDS011;51386;53.082;8.816;2022-10-17T04:41:22;4.20;;;3.90;;
64887;SDS011;51386;53.082;8.816;2022-10-17T04:43:51;4.40;;;4.00;;
64887;SDS011;51386;53.082;8.816;2022-10-17T04:46:18;5.50;;;4.20;;
64887;SDS011;51386;53.082;8.816;2022-10-17T04:48:47;6.27;;;4.40;;
64887;SDS011;51386;53.082;8.816;2022-10-17T04:51:15;4.13;;;3.67;;
64887;SDS011;51386;53.082;8.816;2022-10-17T04:53:48;4.57;;;4.10;;
64887;SDS011;51386;53.082;8.816;2022-10-17T04:56:16;7.43;;;4.33;;
64887;SDS011;51386;53.082;8.816;2022-10-17T04:58:46;4.73;;;3.80;;
64887;SDS011;51386;53.082;8.816;2022-10-17T05:01:14;4.83;;;4.43;;
64887;SDS011;51386;53.082;8.816;2022-10-17T05:03:44;5.83;;;4.30;;
64887;SDS011;51386;53.082;8.816;2022-10-17T05:06:14;8.20;;;4.27;;
64887;SDS011;51386;53.082;8.816;2022-10-17T05:08:47;5.10;;;4.30;;
64887;SDS011;51386;53.082;8.816;2022-10-17T05:11:15;5.97;;;4.33;;
64887;SDS011;51386;53.082;8.816;2022-10-17T05:13:48;5.00;;;3.70;;
64887;SDS011;51386;53.082;8.816;2022-10-17T05:16:17;7.07;;;4.67;;
64887;SDS011;51386;53.082;8.816;2022-10-17T05:18:48;4.57;;;4.17;;
64887;SDS011;51386;53.082;8.816;2022-10-17T05:21:18;4.27;;;3.57;;
64887;SDS011;51386;53.082;8.816;2022-10-17T05:23:48;5.07;;;4.17;;
64887;SDS011;51386;53.082;8.816;2022-10-17T05:26:16;4.53;;;4.03;;
64887;SDS011;51386;53.082;8.816;2022-10-17T05:28:44;4.60;;;4.20;;
64887;SDS011;51386;53.082;8.816;2022-10-17T05:31:11;5.53;;;5.00;;
64887;SDS011;51386;53.082;8.816;2022-10-17T05:33:39;4.73;;;4.33;;
64887;SDS011;51386;53.082;8.816;2022-10-17T05:36:09;5.33;;;4.73;;
64887;SDS011;51386;53.082;8.816;2022-10-17T05:38:37;9.47;;;4.67;;
64887;SDS011;51386;53.082;8.816;2022-10-17T05:41:04;6.40;;;4.13;;
64887;SDS011;51386;53.082;8.816;2022-10-17T05:43:32;5.17;;;4.67;;
64887;SDS011;51386;53.082;8.816;2022-10-17T05:46:01;4.97;;;4.50;;
64887;SDS011;51386;53.082;8.816;2022-10-17T05:48:31;5.60;;;5.00;;
64887;SDS011;51386;53.082;8.816;2022-10-17T05:50:59;7.47;;;4.80;;
64887;SDS011;51386;53.082;8.816;2022-10-17T05:53:31;5.07;;;4.57;;
64887;SDS011;51386;53.082;8.816;2022-10-17T05:56:02;5.00;;;4.60;;
64887;SDS011;51386;53.082;8.816;2022-10-17T05:58:32;6.23;;;4.50;;
64887;SDS011;51386;53.082;8.816;2022-10-17T06:01:19;4.97;;;4.50;;
64887;SDS011;51386;53.082;8.816;2022-10-17T06:03:46;6.77;;;4.67;;
64887;SDS011;51386;53.082;8.816;2022-10-17T06:06:14;7.17;;;6.23;;
64887;SDS011;51386;53.082;8.816;2022-10-17T06:08:44;7.07;;;6.33;;
64887;SDS011;51386;53.082;8.816;2022-10-17T06:11:12;5.20;;;4.70;;
64887;SDS011;51386;53.082;8.816;2022-10-17T06:13:39;4.70;;;4.30;;
64887;SDS011;51386;53.082;8.816;2022-10-17T06:16:07;5.90;;;4.07;;
64887;SDS011;51386;53.082;8.816;2022-10-17T06:18:35;8.20;;;4.77;;
64887;SDS011;51386;53.082;8.816;2022-10-17T06:21:02;4.60;;;4.20;;
64887;SDS011;51386;53.082;8.816;2022-10-17T06:23:33;5.10;;;4.60;;
64887;SDS011;51386;53.082;8.816;2022-10-17T06:26:02;5.10;;;4.47;;
64887;SDS011;51386;53.082;8.816;2022-10-17T06:28:31;4.23;;;3.93;;
64887;SDS011;51386;53.082;8.816;2022-10-17T06:31:02;8.33;;;4.57;;
64887;SDS011;51386;53.082;8.816;2022-10-17T06:33:31;4.90;;;4.40;;
64887;SDS011;51386;53.082;8.816;2022-10-17T06:35:59;6.07;;;4.87;;
64887;SDS011;51386;53.082;8.816;2022-10-17T06:38:26;4.73;;;4.33;;
64887;SDS011;51386;53.082;8.816;2022-10-17T06:40:53;6.90;;;4.47;;
64887;SDS011;51386;53.082;8.816;2022-10-17T06:43:30;4.90;;;4.40;;
64887;SDS011;51386;53.082;8.816;2022-10-17T06:45:57;5.57;;;4.40;;
64887;SDS011;51386;53.082;8.816;2022-10-17T06:48:24;4.40;;;4.00;;
64887;SDS011;51386;53.082;8.816;2022-10-17T06:50:52;5.20;;;4.70;;
64887;SDS011;51386;53.082;8.816;2022-10-17T06:53:43;4.60;;;4.20;;
64887;SDS011;51386;53.082;8.816;2022-10-17T06:56:12;6.87;;;4.23;;
64887;SDS011;51386;53.082;8.816;2022-10-17T06:58:39;4.60;;;4.17;;
64887;SDS011;51386;53.082;8.816;2022-10-17T07:01:08;5.27;;;4.23;;
64887;SDS011;51386;53.082;8.816;2022-10-17T07:03:37;5.13;;;4.00;;
64887;SDS011;51386;53.082;8.816;2022-10-17T07:06:06;6.73;;;4.90;;
64887;SDS011;51386;53.082;8.816;2022-10-17T07:08:36;5.73;;;4.10;;
64887;SDS011;51386;53.082;8.816;2022-10-17T07:11:10;4.70;;;4.13;;
64887;SDS011;51386;53.082;8.816;2022-10-17T07:13:41;4.30;;;3.90;;
64887;SDS011;51386;53.082;8.816;2022-10-17T07:16:09;4.90;;;3.90;;
64887;SDS011;51386;53.082;8.816;2022-10-17T07:18:38;6.53;;;4.90;;
64887;SDS011;51386;53.082;8.816;2022-10-17T07:21:07;4.20;;;3.80;;
64887;SDS011;51386;53.082;8.816;2022-10-17T07:23:35;4.50;;;4.07;;
64887;SDS011;51386;53.082;8.816;2022-10-17T07:26:05;5.60;;;4.40;;
64887;SDS011;51386;53.082;8.816;2022-10-17T07:28:38;7.20;;;3.70;;
64887;SDS011;51386;53.082;8.816;2022-10-17T07:31:08;5.23;;;3.73;;
64887;SDS011;51386;53.082;8.816;2022-10-17T07:33:40;4.63;;;4.20;;
64887;SDS011;51386;53.082;8.816;2022-10-17T07:36:07;4.87;;;4.47;;
64887;SDS011;51386;53.082;8.816;2022-10-17T07:38:35;8.63;;;4.67;;
64887;SDS011;51386;53.082;8.816;2022-10-17T07:41:04;4.30;;;3.90;;
64887;SDS011;51386;53.082;8.816;2022-10-17T07:43:34;4.93;;;3.90;;
64887;SDS011;51386;53.082;8.816;2022-10-17T07:46:06;4.60;;;4.20;;
64887;SDS011;51386;53.082;8.816;2022-10-17T07:48:33;5.27;;;4.07;;
64887;SDS011;51386;53.082;8.816;2022-10-17T07:51:01;4.23;;;3.80;;
64887;SDS011;51386;53.082;8.816;2022-10-17T07:53:29;9.50;;;4.13;;
64887;SDS011;51386;53.082;8.816;2022-10-17T07:55:57;5.00;;;3.97;;
64887;SDS011;51386;53.082;8.816;2022-10-17T07:58:25;4.73;;;4.30;;
64887;SDS011;51386;53.082;8.816;2022-10-17T08:00:54;4.40;;;3.90;;
64887;SDS011;51386;53.082;8.816;2022-10-17T08:03:26;4.87;;;4.37;;
64887;SDS011;51386;53.082;8.816;2022-10-17T08:05:56;6.80;;;4.77;;
64887;SDS011;51386;53.082;8.816;2022-10-17T08:08:24;4.93;;;4.53;;
64887;SDS011;51386;53.082;8.816;2022-10-17T08:10:52;5.43;;;4.43;;
64887;SDS011;51386;53.082;8.816;2022-10-17T08:13:20;4.37;;;4.03;;
64887;SDS011;51386;53.082;8.816;2022-10-17T08:15:48;6.87;;;4.70;;
64887;SDS011;51386;53.082;8.816;2022-10-17T08:18:15;6.83;;;3.97;;
64887;SDS011;51386;53.082;8.816;2022-10-17T08:20:45;4.73;;;4.33;;
64887;SDS011;51386;53.082;8.816;2022-10-17T08:23:14;8.23;;;4.10;;
64887;SDS011;51386;53.082;8.816;2022-10-17T08:25:41;4.33;;;3.93;;
64887;SDS011;51386;53.082;8.816;2022-10-17T08:28:08;5.37;;;4.73;;
64887;SDS011;51386;53.082;8.816;2022-10-17T08:30:35;4.90;;;4.40;;
64887;SDS011;51386;53.082;8.816;2022-10-17T08:33:03;5.03;;;4.23;;
64887;SDS011;51386;53.082;8.816;2022-10-17T08:35:30;6.53;;;3.63;;
64887;SDS011;51386;53.082;8.816;2022-10-17T08:37:59;4.23;;;3.93;;
64887;SDS011;51386;53.082;8.816;2022-10-17T08:40:27;5.07;;;4.30;;
64887;SDS011;51386;53.082;8.816;2022-10-17T08:43:02;4.93;;;3.53;;
64887;SDS011;51386;53.082;8.816;2022-10-17T08:46:01;7.30;;;4.40;;
64887;SDS011;51386;53.082;8.816;2022-10-17T08:48:34;4.30;;;3.90;;
64887;SDS011;51386;53.082;8.816;2022-10-17T08:51:12;4.43;;;3.47;;
64887;SDS011;51386;53.082;8.816;2022-10-17T08:53:47;8.63;;;4.07;;
64887;SDS011;51386;53.082;8.816;2022-10-17T08:56:20;4.80;;;3.30;;
64887;SDS011;51386;53.082;8.816;2022-10-17T08:59:10;3.73;;;3.43;;
64887;SDS011;51386;53.082;8.816;2022-10-17T09:01:41;9.30;;;4.30;;
64887;SDS011;51386;53.082;8.816;2022-10-17T09:04:25;5.60;;;4.40;;
64887;SDS011;51386;53.082;8.816;2022-10-17T09:07:12;9.73;;;4.00;;
64887;SDS011;51386;53.082;8.816;2022-10-17T09:09:52;5.90;;;4.27;;
64887;SDS011;51386;53.082;8.816;2022-10-17T09:12:30;10.77;;;3.83;;
64887;SDS011;51386;53.082;8.816;2022-10-17T09:15:22;12.03;;;4.07;;
64887;SDS011;51386;53.082;8.816;2022-10-17T09:18:14;8.77;;;4.13;;
64887;SDS011;51386;53.082;8.816;2022-10-17T09:20:50;7.83;;;4.20;;
64887;SDS011;51386;53.082;8.816;2022-10-17T09:23:24;8.40;;;3.93;;
64887;SDS011;51386;53.082;8.816;2022-10-17T09:25:59;7.57;;;4.23;;
64887;SDS011;51386;53.082;8.816;2022-10-17T09:28:28;6.23;;;3.97;;
64887;SDS011;51386;53.082;8.816;2022-10-17T09:31:01;7.23;;;4.03;;
64887;SDS011;51386;53.082;8.816;2022-10-17T09:33:33;7.77;;;4.00;;
64887;SDS011;51386;53.082;8.816;2022-10-17T09:36:20;6.40;;;3.63;;
64887;SDS011;51386;53.082;8.816;2022-10-17T09:38:51;6.27;;;4.17;;
64887;SDS011;51386;53.082;8.816;2022-10-17T09:41:24;9.13;;;4.00;;
64887;SDS011;51386;53.082;8.816;2022-10-17T09:44:20;6.97;;;3.67;;
64887;SDS011;51386;53.082;8.816;2022-10-17T09:46:53;7.37;;;4.00;;
64887;SDS011;51386;53.082;8.816;2022-10-17T09:49:34;4.70;;;3.90;;
64887;SDS011;51386;53.082;8.816;2022-10-17T09:52:07;5.90;;;3.90;;
64887;SDS011;51386;53.082;8.816;2022-10-17T09:54:45;4.00;;;3.47;;
64887;SDS011;51386;53.082;8.816;2022-10-17T09:57:17;4.60;;;3.40;;
64887;SDS011;51386;53.082;8.816;2022-10-17T09:59:47;3.90;;;3.60;;
64887;SDS011;51386;53.082;8.816;2022-10-17T10:02:25;5.60;;;3.87;;
64887;SDS011;51386;53.082;8.816;2022-10-17T10:04:56;6.33;;;3.67;;
64887;SDS011;51386;53.082;8.816;2022-10-17T10:07:32;5.83;;;3.23;;
64887;SDS011;51386;53.082;8.816;2022-10-17T10:10:03;6.10;;;3.70;;
64887;SDS011;51386;53.082;8.816;2022-10-17T10:12:40;7.03;;;3.40;;
64887;SDS011;51386;53.082;8.816;2022-10-17T10:15:29;6.43;;;3.60;;
64887;SDS011;51386;53.082;8.816;2022-10-17T10:18:00;5.43;;;3.30;;
64887;SDS011;51386;53.082;8.816;2022-10-17T10:20:31;3.90;;;3.20;;
64887;SDS011;51386;53.082;8.816;2022-10-17T10:23:12;5.97;;;3.77;;
64887;SDS011;51386;53.082;8.816;2022-10-17T10:25:51;3.93;;;3.50;;
64887;SDS011;51386;53.082;8.816;2022-10-17T10:28:24;4.50;;;3.80;;
64887;SDS011;51386;53.082;8.816;2022-10-17T10:30:55;4.90;;;3.80;;
64887;SDS011;51386;53.082;8.816;2022-10-17T10:33:26;3.70;;;3.37;;
64887;SDS011;51386;53.082;8.816;2022-10-17T10:35:57;4.27;;;3.57;;
64887;SDS011;51386;53.082;8.816;2022-10-17T10:38:31;5.73;;;3.87;;
64887;SDS011;51386;53.082;8.816;2022-10-17T10:41:01;4.87;;;3.93;;
64887;SDS011;51386;53.082;8.816;2022-10-17T10:43:33;4.80;;;3.40;;
64887;SDS011;51386;53.082;8.816;2022-10-17T10:46:14;3.20;;;2.90;;
64887;SDS011;51386;53.082;8.816;2022-10-17T10:48:52;3.53;;;3.10;;
64887;SDS011;51386;53.082;8.816;2022-10-17T10:51:26;4.23;;;3.83;;
64887;SDS011;51386;53.082;8.816;2022-10-17T10:53:59;5.40;;;4.00;;
64887;SDS011;51386;53.082;8.816;2022-10-17T10:56:32;6.57;;;3.87;;
64887;SDS011;51386;53.082;8.816;2022-10-17T10:59:08;7.07;;;3.50;;
64887;SDS011;51386;53.082;8.816;2022-10-17T11:01:45;3.57;;;2.97;;
64887;SDS011;51386;53.082;8.816;2022-10-17T11:04:22;4.40;;;3.80;;
64887;SDS011;51386;53.082;8.816;2022-10-17T11:06:59;4.40;;;3.10;;
64887;SDS011;51386;53.082;8.816;2022-10-17T11:09:34;4.33;;;3.40;;
64887;SDS011;51386;53.082;8.816;2022-10-17T11:12:16;4.70;;;3.63;;
64887;SDS011;51386;53.082;8.816;2022-10-17T11:14:52;9.37;;;4.40;;
64887;SDS011;51386;53.082;8.816;2022-10-17T11:17:44;5.77;;;3.80;;
64887;SDS011;51386;53.082;8.816;2022-10-17T11:20:24;3.77;;;3.37;;
64887;SDS011;51386;53.082;8.816;2022-10-17T11:23:01;5.27;;;3.70;;
64887;SDS011;51386;53.082;8.816;2022-10-17T11:25:45;5.93;;;4.07;;
64887;SDS011;51386;53.082;8.816;2022-10-17T11:28:17;9.03;;;4.40;;
64887;SDS011;51386;53.082;8.816;2022-10-17T11:30:49;4.87;;;4.33;;
64887;SDS011;51386;53.082;8.816;2022-10-17T11:33:24;7.20;;;5.20;;
64887;SDS011;51386;53.082;8.816;2022-10-17T11:35:59;5.20;;;4.70;;
64887;SDS011;51386;53.082;8.816;2022-10-17T11:38:35;5.83;;;4.63;;
64887;SDS011;51386;53.082;8.816;2022-10-17T11:41:12;7.60;;;5.13;;
64887;SDS011;51386;53.082;8.816;2022-10-17T11:43:53;4.53;;;4.03;;
64887;SDS011;51386;53.082;8.816;2022-10-17T11:46:28;5.90;;;5.07;;
64887;SDS011;51386;53.082;8.816;2022-10-17T11:49:03;6.00;;;5.03;;
64887;SDS011;51386;53.082;8.816;2022-10-17T11:51:46;5.57;;;4.93;;
64887;SDS011;51386;53.082;8.816;2022-10-17T11:54:29;6.33;;;4.83;;
64887;SDS011;51386;53.082;8.816;2022-10-17T11:57:09;5.97;;;5.40;;
64887;SDS011;51386;53.082;8.816;2022-10-17T12:00:02;6.23;;;5.30;;
64887;SDS011;51386;53.082;8.816;2022-10-17T12:03:06;6.57;;;5.53;;
64887;SDS011;51386;53.082;8.816;2022-10-17T12:05:58;5.03;;;4.63;;
64887;SDS011;51386;53.082;8.816;2022-10-17T12:08:39;5.30;;;4.80;;
64887;SDS011;51386;53.082;8.816;2022-10-17T12:11:18;7.67;;;5.33;;
64887;SDS011;51386;53.082;8.816;2022-10-17T12:14:02;8.80;;;5.23;;
64887;SDS011;51386;53.082;8.816;2022-10-17T12:17:01;6.57;;;5.83;;
64887;SDS011;51386;53.082;8.816;2022-10-17T12:19:33;7.93;;;5.60;;
64887;SDS011;51386;53.082;8.816;2022-10-17T12:22:04;8.50;;;5.33;;
64887;SDS011;51386;53.082;8.816;2022-10-17T12:24:53;9.33;;;8.30;;
64887;SDS011;51386;53.082;8.816;2022-10-17T12:27:34;7.80;;;7.00;;
64887;SDS011;51386;53.082;8.816;2022-10-17T12:30:15;7.73;;;7.00;;
64887;SDS011;51386;53.082;8.816;2022-10-17T12:35:49;9.60;;;7.80;;
64887;SDS011;51386;53.082;8.816;2022-10-17T12:38:38;9.73;;;7.13;;
64887;SDS011;51386;53.082;8.816;2022-10-17T12:41:06;8.60;;;7.17;;
64887;SDS011;51386;53.082;8.816;2022-10-17T12:43:42;7.97;;;7.13;;
64887;SDS011;51386;53.082;8.816;2022-10-17T12:46:16;8.43;;;7.43;;
64887;SDS011;51386;53.082;8.816;2022-10-17T12:55:24;8.40;;;7.60;;
64887;SDS011;51386;53.082;8.816;2022-10-17T12:57:53;10.23;;;7.50;;
64887;SDS011;51386;53.082;8.816;2022-10-17T13:00:32;10.37;;;6.83;;
64887;SDS011;51386;53.082;8.816;2022-10-17T13:03:15;8.47;;;6.40;;
64887;SDS011;51386;53.082;8.816;2022-10-17T13:05:48;7.40;;;6.70;;
64887;SDS011;51386;53.082;8.816;2022-10-17T13:08:20;7.47;;;6.73;;
64887;SDS011;51386;53.082;8.816;2022-10-17T13:10:51;10.33;;;7.80;;
64887;SDS011;51386;53.082;8.816;2022-10-17T13:13:22;7.30;;;6.70;;
64887;SDS011;51386;53.082;8.816;2022-10-17T13:16:00;11.33;;;7.67;;
64887;SDS011;51386;53.082;8.816;2022-10-17T13:18:28;8.40;;;7.50;;
64887;SDS011;51386;53.082;8.816;2022-10-17T13:20:57;9.07;;;7.83;;
64887;SDS011;51386;53.082;8.816;2022-10-17T13:23:30;7.47;;;6.80;;
64887;SDS011;51386;53.082;8.816;2022-10-17T13:26:04;8.37;;;7.60;;
64887;SDS011;51386;53.082;8.816;2022-10-17T13:28:39;9.13;;;8.03;;
64887;SDS011;51386;53.082;8.816;2022-10-17T13:31:20;8.07;;;7.37;;
64887;SDS011;51386;53.082;8.816;2022-10-17T13:33:56;7.83;;;7.03;;
64887;SDS011;51386;53.082;8.816;2022-10-17T13:36:27;10.97;;;8.50;;
64887;SDS011;51386;53.082;8.816;2022-10-17T13:39:06;8.60;;;7.77;;
64887;SDS011;51386;53.082;8.816;2022-10-17T13:41:42;11.07;;;8.20;;
64887;SDS011;51386;53.082;8.816;2022-10-17T13:44:19;10.50;;;8.47;;
64887;SDS011;51386;53.082;8.816;2022-10-17T13:46:49;10.63;;;8.30;;
64887;SDS011;51386;53.082;8.816;2022-10-17T13:49:18;9.83;;;8.20;;
64887;SDS011;51386;53.082;8.816;2022-10-17T13:51:53;10.37;;;8.20;;
64887;SDS011;51386;53.082;8.816;2022-10-17T13:54:30;9.30;;;8.27;;
64887;SDS011;51386;53.082;8.816;2022-10-17T13:57:02;8.57;;;7.80;;
64887;SDS011;51386;53.082;8.816;2022-10-17T13:59:33;10.87;;;8.73;;
64887;SDS011;51386;53.082;8.816;2022-10-17T14:02:05;8.57;;;7.77;;
64887;SDS011;51386;53.082;8.816;2022-10-17T14:04:39;8.63;;;7.43;;
64887;SDS011;51386;53.082;8.816;2022-10-17T14:07:28;9.00;;;8.07;;
64887;SDS011;51386;53.082;8.816;2022-10-17T14:10:25;8.87;;;7.87;;
64887;SDS011;51386;53.082;8.816;2022-10-17T14:12:59;15.80;;;12.73;;
64887;SDS011;51386;53.082;8.816;2022-10-17T14:15:30;9.40;;;8.50;;
64887;SDS011;51386;53.082;8.816;2022-10-17T14:18:01;11.50;;;8.50;;
64887;SDS011;51386;53.082;8.816;2022-10-17T14:20:33;9.60;;;8.57;;
64887;SDS011;51386;53.082;8.816;2022-10-17T14:23:29;10.10;;;8.10;;
64887;SDS011;51386;53.082;8.816;2022-10-17T14:26:07;7.57;;;6.83;;
64887;SDS011;51386;53.082;8.816;2022-10-17T14:28:39;11.83;;;8.23;;
64887;SDS011;51386;53.082;8.816;2022-10-17T14:31:10;8.87;;;7.83;;
64887;SDS011;51386;53.082;8.816;2022-10-17T14:33:51;7.50;;;6.77;;
64887;SDS011;51386;53.082;8.816;2022-10-17T14:36:28;7.70;;;7.00;;
64887;SDS011;51386;53.082;8.816;2022-10-17T14:38:59;8.30;;;7.33;;
64887;SDS011;51386;53.082;8.816;2022-10-17T14:41:31;8.10;;;7.23;;
64887;SDS011;51386;53.082;8.816;2022-10-17T14:44:13;7.80;;;7.00;;
64887;SDS011;51386;53.082;8.816;2022-10-17T14:46:48;11.73;;;9.73;;
64887;SDS011;51386;53.082;8.816;2022-10-17T14:49:22;8.60;;;7.80;;
64887;SDS011;51386;53.082;8.816;2022-10-17T14:52:22;7.63;;;6.43;;
64887;SDS011;51386;53.082;8.816;2022-10-17T14:54:56;9.73;;;6.27;;
64887;SDS011;51386;53.082;8.816;2022-10-17T14:57:40;9.50;;;8.10;;
64887;SDS011;51386;53.082;8.816;2022-10-17T15:00:12;9.87;;;8.20;;
64887;SDS011;51386;53.082;8.816;2022-10-17T15:02:41;8.07;;;7.37;;
64887;SDS011;51386;53.082;8.816;2022-10-17T15:05:10;8.70;;;7.60;;
64887;SDS011;51386;53.082;8.816;2022-10-17T15:07:39;7.70;;;6.30;;
64887;SDS011;51386;53.082;8.816;2022-10-17T15:10:08;7.03;;;6.33;;
64887;SDS011;51386;53.082;8.816;2022-10-17T15:13:00;7.43;;;6.73;;
64887;SDS011;51386;53.082;8.816;2022-10-17T15:15:49;6.73;;;5.23;;
64887;SDS011;51386;53.082;8.816;2022-10-17T15:18:17;6.93;;;6.27;;
64887;SDS011;51386;53.082;8.816;2022-10-17T15:20:45;6.47;;;5.93;;
64887;SDS011;51386;53.082;8.816;2022-10-17T15:23:20;6.80;;;6.10;;
64887;SDS011;51386;53.082;8.816;2022-10-17T15:25:48;7.73;;;6.37;;
64887;SDS011;51386;53.082;8.816;2022-10-17T15:28:17;6.17;;;5.67;;
64887;SDS011;51386;53.082;8.816;2022-10-17T15:30:44;6.83;;;6.13;;
64887;SDS011;51386;53.082;8.816;2022-10-17T15:33:12;6.87;;;5.60;;
64887;SDS011;51386;53.082;8.816;2022-10-17T15:35:39;6.67;;;6.07;;
64887;SDS011;51386;53.082;8.816;2022-10-17T15:38:10;6.13;;;5.53;;
64887;SDS011;51386;53.082;8.816;2022-10-17T15:40:43;6.17;;;5.13;;
64887;SDS011;51386;53.082;8.816;2022-10-17T15:43:14;9.77;;;7.53;;
64887;SDS011;51386;53.082;8.816;2022-10-17T15:45:46;6.40;;;5.80;;